createdAt,value
2019-03-31T00:01:07.577Z,45.30
2019-03-31T00:03:26.769Z,45.30
2019-03-31T00:05:58.138Z,45.70
2019-03-31T00:08:29.788Z,46.20
2019-03-31T00:11:00.847Z,46.60
2019-03-31T00:13:30.057Z,47.40
2019-03-31T00:15:58.847Z,48.30
2019-03-31T00:18:27.684Z,48.30
2019-03-31T00:20:56.721Z,48.90
2019-03-31T00:23:25.516Z,48.80
2019-03-31T00:25:54.397Z,49.10
2019-03-31T00:28:23.400Z,49.70
2019-03-31T00:30:52.897Z,49.60
2019-03-31T00:33:21.990Z,49.50
2019-03-31T00:35:51.433Z,50.10
2019-03-31T00:38:20.337Z,49.90
2019-03-31T00:40:49.389Z,49.80
2019-03-31T00:43:18.483Z,49.50
2019-03-31T00:45:47.678Z,49.50
2019-03-31T00:48:16.492Z,49.90
2019-03-31T00:50:45.285Z,50.00
2019-03-31T00:53:14.403Z,49.80
2019-03-31T00:55:43.274Z,49.70
2019-03-31T00:58:13.325Z,49.40
2019-03-31T01:01:35.495Z,49.40
2019-03-31T01:03:53.342Z,49.30
2019-03-31T01:06:24.075Z,50.20
2019-03-31T01:08:54.461Z,49.70
2019-03-31T01:11:24.962Z,49.40
2019-03-31T01:13:54.010Z,49.40
2019-03-31T01:16:23.041Z,49.80
2019-03-31T01:18:52.164Z,49.40
2019-03-31T01:21:21.144Z,49.30
2019-03-31T01:23:50.151Z,49.80
2019-03-31T01:26:21.273Z,49.30
2019-03-31T01:28:50.573Z,49.80
2019-03-31T01:31:19.778Z,49.90
2019-03-31T01:33:48.902Z,50.10
2019-03-31T01:36:18.412Z,50.00
2019-03-31T01:38:47.428Z,50.30
2019-03-31T01:41:16.789Z,50.90
2019-03-31T01:43:45.665Z,51.20
2019-03-31T01:46:15.906Z,51.50
2019-03-31T01:48:45.105Z,51.40
2019-03-31T01:51:13.971Z,51.50
2019-03-31T01:53:42.941Z,51.50
2019-03-31T01:56:11.806Z,52.40
2019-03-31T01:58:41.193Z,51.20
2019-03-31T02:01:12.567Z,50.70
2019-03-31T02:03:41.381Z,51.00
2019-03-31T02:06:10.372Z,51.60
2019-03-31T02:08:39.354Z,51.80
2019-03-31T02:11:08.251Z,52.00
2019-03-31T02:13:37.448Z,52.50
2019-03-31T02:16:06.305Z,53.00
2019-03-31T02:18:35.661Z,52.90
2019-03-31T02:21:04.511Z,52.70
2019-03-31T02:23:33.566Z,52.60
2019-03-31T02:26:02.686Z,52.40
2019-03-31T02:28:31.488Z,52.40
2019-03-31T02:31:00.640Z,52.40
2019-03-31T02:33:29.508Z,52.80
2019-03-31T02:35:58.298Z,52.80
2019-03-31T02:38:27.486Z,52.60
2019-03-31T02:40:56.687Z,52.60
2019-03-31T02:43:25.715Z,52.30
2019-03-31T02:45:55.999Z,52.90
2019-03-31T02:48:25.025Z,53.00
2019-03-31T02:50:54.215Z,53.00
2019-03-31T02:53:23.055Z,52.60
2019-03-31T02:55:52.237Z,52.80
2019-03-31T02:58:21.026Z,53.20
2019-03-31T03:00:49.841Z,53.30
2019-03-31T03:03:20.245Z,53.20
2019-03-31T03:05:49.302Z,53.60
2019-03-31T03:08:21.162Z,54.60
2019-03-31T03:10:51.927Z,54.40
2019-03-31T03:13:22.511Z,54.20
2019-03-31T03:16:20.222Z,54.20
2019-03-31T03:18:49.098Z,55.10
2019-03-31T03:21:18.446Z,54.60
2019-03-31T03:23:47.553Z,55.30
2019-03-31T03:26:16.498Z,55.30
2019-03-31T03:28:45.334Z,54.90
2019-03-31T03:31:16.574Z,54.50
2019-03-31T03:33:46.256Z,54.60
2019-03-31T03:36:15.425Z,54.90
2019-03-31T03:38:44.793Z,55.50
2019-03-31T03:41:13.633Z,55.70
2019-03-31T03:43:54.853Z,55.30
2019-03-31T03:46:14.483Z,55.80
2019-03-31T03:48:43.569Z,55.80
2019-03-31T03:51:12.503Z,55.50
2019-03-31T03:53:41.420Z,55.40
2019-03-31T03:56:11.351Z,55.50
2019-03-31T03:58:40.387Z,55.60
2019-03-31T04:01:12.949Z,56.40
2019-03-31T04:03:41.801Z,56.70
2019-03-31T04:06:10.625Z,56.90
2019-03-31T04:08:39.496Z,56.90
2019-03-31T04:11:21.705Z,56.40
2019-03-31T04:13:50.910Z,56.10
2019-03-31T04:16:19.703Z,56.20
2019-03-31T04:18:48.956Z,55.70
2019-03-31T04:21:17.910Z,55.90
2019-03-31T04:23:47.120Z,55.90
2019-03-31T04:26:16.325Z,55.80
2019-03-31T04:28:46.034Z,55.60
2019-03-31T04:31:14.897Z,55.90
2019-03-31T04:33:51.376Z,55.70
2019-03-31T04:36:15.166Z,55.70
2019-03-31T04:38:44.037Z,56.40
2019-03-31T04:41:12.953Z,56.10
2019-03-31T04:43:42.261Z,56.20
2019-03-31T04:46:11.143Z,56.60
2019-03-31T04:48:40.192Z,57.00
2019-03-31T04:51:08.984Z,57.00
2019-03-31T04:53:37.848Z,57.10
2019-03-31T04:56:07.139Z,56.60
2019-03-31T04:58:35.959Z,56.20
2019-03-31T05:01:04.748Z,56.80
2019-03-31T05:03:33.644Z,56.40
2019-03-31T05:06:02.759Z,56.50
2019-03-31T05:08:31.670Z,56.90
2019-03-31T05:11:01.885Z,57.20
2019-03-31T05:13:30.819Z,57.70
2019-03-31T05:15:59.939Z,57.60
2019-03-31T05:18:29.116Z,57.80
2019-03-31T05:20:58.406Z,57.80
2019-03-31T05:23:27.189Z,57.30
2019-03-31T05:25:56.043Z,57.20
2019-03-31T05:28:25.883Z,57.60
2019-03-31T05:30:55.936Z,57.60
2019-03-31T05:33:24.790Z,56.90
2019-03-31T05:35:53.695Z,57.00
2019-03-31T05:38:22.706Z,56.50
2019-03-31T05:40:51.580Z,55.90
2019-03-31T05:43:21.353Z,56.00
2019-03-31T05:45:52.436Z,56.00
2019-03-31T05:48:20.829Z,55.70
2019-03-31T05:50:49.756Z,55.80
2019-03-31T05:53:18.807Z,56.20
2019-03-31T05:55:47.679Z,56.40
2019-03-31T05:58:16.630Z,56.60
2019-03-31T06:00:49.756Z,56.80
2019-03-31T06:03:19.397Z,57.20
2019-03-31T06:05:48.701Z,57.00
2019-03-31T06:08:17.484Z,57.50
2019-03-31T06:10:46.508Z,56.90
2019-03-31T06:13:15.527Z,56.50
2019-03-31T06:15:44.435Z,56.10
2019-03-31T06:18:13.793Z,56.00
2019-03-31T06:20:42.950Z,55.80
2019-03-31T06:23:12.107Z,55.60
2019-03-31T06:25:41.122Z,55.80
2019-03-31T06:28:10.216Z,55.60
2019-03-31T06:30:41.649Z,55.50
2019-03-31T06:33:10.980Z,55.70
2019-03-31T06:35:40.482Z,55.20
2019-03-31T06:38:11.135Z,55.10
2019-03-31T06:40:42.115Z,54.90
2019-03-31T06:43:11.158Z,54.50
2019-03-31T06:45:40.273Z,54.10
2019-03-31T06:48:09.123Z,54.40
2019-03-31T06:50:38.170Z,54.00
2019-03-31T06:53:07.175Z,53.90
2019-03-31T06:55:36.444Z,53.50
2019-03-31T06:58:05.332Z,52.50
2019-03-31T07:00:34.381Z,52.90
2019-03-31T07:03:03.195Z,52.70
2019-03-31T07:05:32.459Z,52.20
2019-03-31T07:08:01.518Z,51.70
2019-03-31T07:10:30.277Z,51.00
2019-03-31T07:12:59.797Z,50.30
2019-03-31T07:15:29.069Z,50.20
2019-03-31T07:17:58.130Z,49.70
2019-03-31T07:20:26.958Z,50.10
2019-03-31T07:22:55.813Z,49.40
2019-03-31T07:25:24.639Z,49.50
2019-03-31T07:27:54.659Z,49.50
2019-03-31T07:30:23.529Z,48.70
2019-03-31T07:32:52.599Z,48.60
2019-03-31T07:35:21.562Z,48.70
2019-03-31T07:37:50.575Z,48.40
2019-03-31T07:40:20.012Z,46.60
2019-03-31T07:42:51.012Z,45.90
2019-03-31T07:45:19.793Z,46.40
2019-03-31T07:47:48.660Z,48.20
2019-03-31T07:50:17.703Z,44.80
2019-03-31T07:52:46.533Z,45.20
2019-03-31T07:55:15.405Z,45.00
2019-03-31T07:57:45.653Z,45.30
2019-03-31T08:00:17.224Z,44.20
2019-03-31T08:02:46.366Z,43.50
2019-03-31T08:05:15.184Z,43.90
2019-03-31T08:07:44.037Z,43.80
2019-03-31T08:10:12.935Z,42.30
2019-03-31T08:12:41.848Z,42.20
2019-03-31T08:15:10.648Z,42.30
2019-03-31T08:17:42.757Z,42.60
2019-03-31T08:20:11.631Z,42.80
2019-03-31T08:22:40.434Z,41.90
2019-03-31T08:25:11.213Z,40.60
2019-03-31T08:27:40.029Z,40.70
2019-03-31T08:30:10.821Z,40.80
2019-03-31T08:32:40.187Z,40.70
2019-03-31T08:35:09.601Z,40.70
2019-03-31T08:37:40.185Z,40.90
2019-03-31T08:40:11.904Z,40.90
2019-03-31T08:42:40.700Z,40.10
2019-03-31T08:45:09.876Z,40.00
2019-03-31T08:47:38.926Z,39.60
2019-03-31T08:50:08.700Z,38.70
2019-03-31T08:52:37.610Z,37.80
2019-03-31T08:55:06.923Z,38.00
2019-03-31T08:57:36.098Z,37.60
2019-03-31T09:00:06.409Z,37.00
2019-03-31T09:02:35.673Z,36.70
2019-03-31T09:05:06.587Z,36.10
2019-03-31T09:07:36.809Z,36.30
2019-03-31T09:10:06.783Z,35.40
2019-03-31T09:12:36.098Z,34.80
2019-03-31T09:15:09.831Z,33.80
2019-03-31T09:17:39.173Z,33.60
2019-03-31T09:20:08.879Z,32.30
2019-03-31T09:22:39.069Z,32.10
2019-03-31T09:25:10.216Z,31.00
2019-03-31T09:27:39.686Z,31.30
2019-03-31T09:30:09.936Z,29.10
2019-03-31T09:32:38.870Z,29.20
2019-03-31T09:35:08.584Z,29.40
2019-03-31T09:37:37.540Z,28.80
2019-03-31T09:40:08.002Z,28.20
2019-03-31T09:42:36.811Z,28.20
2019-03-31T09:45:06.360Z,27.40
2019-03-31T09:47:44.065Z,27.70
2019-03-31T09:50:36.589Z,27.00
2019-03-31T09:53:05.873Z,27.00
2019-03-31T09:55:35.288Z,26.50
2019-03-31T09:58:04.215Z,26.40
2019-03-31T10:00:47.381Z,26.50
2019-03-31T10:03:16.231Z,25.50
2019-03-31T10:05:47.959Z,25.70
2019-03-31T10:08:15.792Z,26.00
2019-03-31T10:10:44.655Z,25.50
2019-03-31T10:13:13.564Z,25.70
2019-03-31T10:15:42.495Z,24.80
2019-03-31T10:18:11.496Z,25.20
2019-03-31T10:20:40.720Z,25.20
2019-03-31T10:23:09.634Z,25.80
2019-03-31T10:25:38.404Z,25.50
2019-03-31T10:28:08.361Z,25.10
2019-03-31T10:30:37.595Z,24.30
2019-03-31T10:33:06.526Z,24.90
2019-03-31T10:35:35.697Z,24.40
2019-03-31T10:38:05.184Z,24.10
2019-03-31T10:40:34.117Z,22.70
2019-03-31T10:43:12.390Z,22.70
2019-03-31T10:45:42.082Z,22.70
2019-03-31T10:48:20.305Z,21.90
2019-03-31T10:50:46.692Z,21.50
2019-03-31T10:53:15.762Z,21.60
2019-03-31T10:55:45.698Z,21.90
2019-03-31T10:58:15.762Z,22.10
2019-03-31T11:00:45.014Z,22.00
